createdAt,value
2022-08-28T00:00:25.224Z,101297.63
2022-08-28T00:02:52.486Z,101295.97
2022-08-28T00:05:22.356Z,101297.72
2022-08-28T00:07:49.366Z,101291.53
2022-08-28T00:10:18.308Z,101303.53
2022-08-28T00:12:46.950Z,101302.19
2022-08-28T00:15:17.701Z,101304.66
2022-08-28T00:17:44.813Z,101313.28
2022-08-28T00:20:18.609Z,101311.09
2022-08-28T00:22:45.813Z,101320.94
2022-08-28T00:25:14.319Z,101314.66
2022-08-28T00:27:52.757Z,101313.41
2022-08-28T00:30:31.907Z,101311.88
2022-08-28T00:33:01.830Z,101317.63
2022-08-28T00:35:28.484Z,101314.94
2022-08-28T00:37:55.294Z,101317.91
2022-08-28T00:40:30.428Z,101312.53
2022-08-28T00:43:01.606Z,101316.63
2022-08-28T00:45:28.440Z,101307.19
2022-08-28T00:47:55.021Z,101314.31
2022-08-28T00:50:25.490Z,101313.81
2022-08-28T00:52:59.939Z,101316.47
2022-08-28T00:55:28.177Z,101310.66
2022-08-28T00:57:58.976Z,101317.66
2022-08-28T01:00:34.709Z,101314.63
2022-08-28T01:03:02.757Z,101320.44
2022-08-28T01:05:30.020Z,101326.56
2022-08-28T01:07:58.841Z,101313.16
2022-08-28T01:10:28.638Z,101321.97
2022-08-28T01:12:57.143Z,101320.69
2022-08-28T01:15:31.548Z,101322.88
2022-08-28T01:18:12.324Z,101325.44
2022-08-28T01:20:47.458Z,101327.06
2022-08-28T01:23:38.648Z,101321.53
2022-08-28T01:26:10.940Z,101330.44
2022-08-28T01:28:40.003Z,101321.84
2022-08-28T01:31:10.689Z,101334.50
2022-08-28T01:33:37.396Z,101329.03
2022-08-28T01:36:10.326Z,101334.63
2022-08-28T01:38:38.285Z,101335.69
2022-08-28T01:41:05.083Z,101328.59
2022-08-28T01:43:31.806Z,101334.56
2022-08-28T01:46:02.096Z,101332.94
2022-08-28T01:48:30.895Z,101336.91
2022-08-28T01:50:57.515Z,101338.34
2022-08-28T01:53:32.167Z,101340.16
2022-08-28T01:56:02.656Z,101338.75
2022-08-28T01:58:33.008Z,101341.84
2022-08-28T02:01:02.581Z,101341.31
2022-08-28T02:03:29.108Z,101343.41
2022-08-28T02:05:55.614Z,101342.88
2022-08-28T02:08:22.148Z,101343.03
2022-08-28T02:10:49.241Z,101333.41
2022-08-28T02:13:15.768Z,101337.72
2022-08-28T02:15:44.115Z,101341.53
2022-08-28T02:18:11.134Z,101347.81
2022-08-28T02:20:37.948Z,101347.94
2022-08-28T02:23:05.968Z,101356.34
2022-08-28T02:25:32.957Z,101362.09
2022-08-28T02:27:59.710Z,101356.03
2022-08-28T02:30:26.377Z,101368.56
2022-08-28T02:32:53.972Z,101371.66
2022-08-28T02:35:22.648Z,101370.16
2022-08-28T02:37:49.883Z,101367.34
2022-08-28T02:40:20.335Z,101367.56
2022-08-28T02:42:46.973Z,101371.38
2022-08-28T02:45:14.681Z,101368.84
2022-08-28T02:47:43.602Z,101374.31
2022-08-28T02:50:13.084Z,101370.19
2022-08-28T02:52:40.533Z,101368.81
2022-08-28T02:55:09.696Z,101369.28
2022-08-28T02:57:36.315Z,101372.28
2022-08-28T03:00:06.088Z,101372.91
2022-08-28T03:02:32.687Z,101369.19
2022-08-28T03:05:00.460Z,101373.31
2022-08-28T03:07:29.193Z,101378.81
2022-08-28T03:09:56.632Z,101381.84
2022-08-28T03:12:26.697Z,101390.19
2022-08-28T03:14:54.596Z,101388.53
2022-08-28T03:17:22.075Z,101383.41
2022-08-28T03:19:50.104Z,101391.63
2022-08-28T03:22:18.418Z,101390.97
2022-08-28T03:24:45.738Z,101398.94
2022-08-28T03:27:12.278Z,101392.25
2022-08-28T03:29:39.267Z,101395.88
2022-08-28T03:32:05.928Z,101397.50
2022-08-28T03:34:33.500Z,101399.16
2022-08-28T03:37:01.205Z,101398.34
2022-08-28T03:39:27.876Z,101400.53
2022-08-28T03:41:54.929Z,101399.16
2022-08-28T03:44:21.579Z,101398.13
2022-08-28T03:46:48.120Z,101402.63
2022-08-28T03:49:14.737Z,101405.47
2022-08-28T03:51:41.266Z,101411.97
2022-08-28T03:54:07.833Z,101412.34
2022-08-28T03:56:34.385Z,101409.50
2022-08-28T03:59:03.344Z,101407.69
2022-08-28T04:01:30.037Z,101417.66
2022-08-28T04:03:57.063Z,101412.16
2022-08-28T04:06:24.105Z,101410.94
2022-08-28T04:08:51.082Z,101414.59
2022-08-28T04:11:18.497Z,101419.09
2022-08-28T04:13:45.204Z,101410.34
2022-08-28T04:16:16.574Z,101415.41
2022-08-28T04:18:45.994Z,101427.84
2022-08-28T04:21:19.105Z,101420.72
2022-08-28T04:23:46.678Z,101432.72
2022-08-28T04:26:18.849Z,101433.94
2022-08-28T04:28:46.671Z,101430.28
2022-08-28T04:31:14.883Z,101430.91
2022-08-28T04:33:41.903Z,101431.03
2022-08-28T04:36:15.908Z,101440.03
2022-08-28T04:38:44.078Z,101434.75
2022-08-28T04:41:13.386Z,101437.44
2022-08-28T04:43:40.170Z,101434.09
2022-08-28T04:46:09.571Z,101433.72
2022-08-28T04:48:36.247Z,101436.38
2022-08-28T04:51:05.586Z,101446.50
2022-08-28T04:53:32.974Z,101439.63
2022-08-28T04:56:02.411Z,101445.31
2022-08-28T04:58:30.448Z,101444.94
2022-08-28T05:00:57.157Z,101447.31
2022-08-28T05:03:24.107Z,101446.75
2022-08-28T05:05:53.404Z,101453.25
2022-08-28T05:08:24.019Z,101458.28
2022-08-28T05:10:50.989Z,101456.88
2022-08-28T05:13:18.524Z,101465.63
2022-08-28T05:15:47.688Z,101461.13
2022-08-28T05:18:16.422Z,101471.50
2022-08-28T05:20:47.735Z,101459.78
2022-08-28T05:23:15.841Z,101460.81
2022-08-28T05:25:46.645Z,101466.19
2022-08-28T05:28:16.751Z,101471.81
2022-08-28T05:30:44.557Z,101473.91
2022-08-28T05:33:13.458Z,101482.50
2022-08-28T05:35:43.693Z,101479.63
2022-08-28T05:38:12.311Z,101481.38
2022-08-28T05:40:47.919Z,101475.69
2022-08-28T05:43:15.774Z,101472.25
2022-08-28T05:45:42.777Z,101476.25
2022-08-28T05:48:09.488Z,101472.84
2022-08-28T05:50:39.481Z,101480.72
2022-08-28T05:53:11.069Z,101479.41
2022-08-28T05:55:40.526Z,101482.66
2022-08-28T05:58:25.638Z,101489.47
2022-08-28T06:00:52.232Z,101495.31
2022-08-28T06:03:18.751Z,101495.94
2022-08-28T06:05:45.314Z,101496.53
2022-08-28T06:08:11.969Z,101500.09
2022-08-28T06:10:45.883Z,101491.75
2022-08-28T06:13:15.267Z,101501.06
2022-08-28T06:15:43.389Z,101503.34
2022-08-28T06:18:10.098Z,101497.03
2022-08-28T06:20:43.903Z,101494.38
2022-08-28T06:23:12.244Z,101496.44
2022-08-28T06:25:39.603Z,101511.06
2022-08-28T06:28:07.595Z,101514.94
2022-08-28T06:30:37.502Z,101510.25
2022-08-28T06:33:07.699Z,101514.34
2022-08-28T06:35:34.531Z,101516.19
2022-08-28T06:38:01.418Z,101520.19
2022-08-28T06:40:28.003Z,101517.44
2022-08-28T06:42:54.582Z,101517.00
2022-08-28T06:45:21.213Z,101523.28
2022-08-28T06:47:47.798Z,101522.06
2022-08-28T06:50:17.310Z,101512.91
2022-08-28T06:52:44.166Z,101519.44
2022-08-28T06:55:10.889Z,101517.38
2022-08-28T06:57:38.284Z,101521.47
2022-08-28T07:00:05.586Z,101524.72
2022-08-28T07:02:32.594Z,101530.63
2022-08-28T07:04:59.215Z,101529.00
2022-08-28T07:07:32.468Z,101523.09
2022-08-28T07:09:59.293Z,101526.13
2022-08-28T07:12:25.846Z,101534.22
2022-08-28T07:14:52.851Z,101527.97
2022-08-28T07:17:19.477Z,101526.69
2022-08-28T07:19:46.457Z,101533.66
2022-08-28T07:22:12.991Z,101535.88
2022-08-28T07:24:39.475Z,101533.97
2022-08-28T07:27:06.032Z,101542.91
2022-08-28T07:29:32.642Z,101538.75
2022-08-28T07:31:59.545Z,101529.78
2022-08-28T07:34:26.976Z,101544.78
2022-08-28T07:36:54.138Z,101540.81
2022-08-28T07:39:20.781Z,101538.31
2022-08-28T07:41:47.945Z,101540.38
2022-08-28T07:44:34.346Z,101541.69
2022-08-28T07:47:05.635Z,101540.31
2022-08-28T07:49:33.917Z,101543.59
2022-08-28T07:52:01.351Z,101538.78
2022-08-28T07:54:27.929Z,101545.38
2022-08-28T07:56:54.674Z,101545.88
2022-08-28T07:59:22.116Z,101552.56
2022-08-28T08:01:51.408Z,101549.25
2022-08-28T08:04:19.958Z,101547.94
2022-08-28T08:06:46.957Z,101556.72
2022-08-28T08:09:16.689Z,101554.78
2022-08-28T08:11:43.594Z,101564.28
2022-08-28T08:14:10.435Z,101557.28
2022-08-28T08:16:40.294Z,101553.41
2022-08-28T08:19:09.914Z,101553.91
2022-08-28T08:21:37.631Z,101561.00
2022-08-28T08:24:04.589Z,101567.44
2022-08-28T08:26:32.244Z,101562.00
2022-08-28T08:28:59.470Z,101562.28
2022-08-28T08:31:35.180Z,101556.44
2022-08-28T08:34:04.842Z,101562.47
2022-08-28T08:36:33.709Z,101562.56
2022-08-28T08:39:00.726Z,101558.31
2022-08-28T08:41:39.415Z,101550.19
2022-08-28T08:44:28.479Z,101559.50
2022-08-28T08:47:10.652Z,101560.41
2022-08-28T08:49:44.220Z,101562.22
2022-08-28T08:52:30.139Z,101567.31
2022-08-28T08:55:21.653Z,101566.13
2022-08-28T08:57:53.840Z,101569.91
2022-08-28T09:00:20.600Z,101565.50
2022-08-28T09:02:54.583Z,101568.97
2022-08-28T09:05:34.103Z,101562.88
2022-08-28T09:08:03.070Z,101558.34
2022-08-28T09:10:41.157Z,101562.00
2022-08-28T09:13:32.063Z,101562.66
2022-08-28T09:15:59.654Z,101561.50
2022-08-28T09:18:34.036Z,101565.78
2022-08-28T09:21:00.643Z,101576.59
2022-08-28T09:23:29.843Z,101575.13
2022-08-28T09:26:12.536Z,101577.44
2022-08-28T09:28:41.619Z,101575.28
2022-08-28T09:31:14.000Z,101583.47
2022-08-28T09:33:44.847Z,101577.22
2022-08-28T09:36:38.287Z,101586.50
2022-08-28T09:39:19.651Z,101582.66
2022-08-28T09:42:16.556Z,101582.56
2022-08-28T09:44:51.311Z,101582.31
2022-08-28T09:47:50.685Z,101579.88
2022-08-28T09:50:24.744Z,101577.59
2022-08-28T09:52:53.831Z,101587.22
2022-08-28T09:55:38.439Z,101579.97
2022-08-28T09:58:06.153Z,101572.38
2022-08-28T10:00:50.052Z,101566.31
2022-08-28T10:03:38.994Z,101575.47
2022-08-28T10:06:13.951Z,101571.38
2022-08-28T10:08:53.420Z,101569.53
2022-08-28T10:11:31.502Z,101570.41
2022-08-28T10:14:29.539Z,101567.94
2022-08-28T10:17:16.671Z,101564.41
2022-08-28T10:19:59.230Z,101561.03
2022-08-28T10:22:43.690Z,101566.97
2022-08-28T10:25:32.916Z,101565.16
2022-08-28T10:28:02.273Z,101565.41
2022-08-28T10:30:34.651Z,101564.75
2022-08-28T10:33:07.708Z,101579.16
2022-08-28T10:36:03.972Z,101575.56
2022-08-28T10:38:41.862Z,101562.44
2022-08-28T10:41:27.037Z,101568.19
2022-08-28T10:43:57.219Z,101571.97
2022-08-28T10:46:38.592Z,101576.56
2022-08-28T10:49:28.384Z,101562.13
2022-08-28T10:52:10.460Z,101565.38
2022-08-28T10:54:44.018Z,101570.81
2022-08-28T10:57:30.963Z,101566.25
2022-08-28T11:00:00.150Z,101563.44
2022-08-28T11:02:28.232Z,101565.59
2022-08-28T11:04:58.639Z,101569.13
2022-08-28T11:07:31.569Z,101557.97
2022-08-28T11:10:15.838Z,101565.47
2022-08-28T11:12:43.614Z,101557.78
2022-08-28T11:15:22.414Z,101558.69
2022-08-28T11:17:50.189Z,101566.88
2022-08-28T11:20:24.728Z,101558.94
2022-08-28T11:23:08.261Z,101567.63
2022-08-28T11:25:58.836Z,101570.31
2022-08-28T11:28:25.590Z,101568.38
2022-08-28T11:31:00.941Z,101558.34
2022-08-28T11:33:38.436Z,101561.88
2022-08-28T11:36:29.704Z,101558.03
2022-08-28T11:38:56.326Z,101559.53
2022-08-28T11:41:30.582Z,101562.88
2022-08-28T11:44:09.451Z,101563.84
2022-08-28T11:46:43.363Z,101562.56
2022-08-28T11:49:31.578Z,101562.03
2022-08-28T11:52:29.143Z,101556.91
2022-08-28T11:55:24.651Z,101560.00
2022-08-28T12:00:46.183Z,101562.09
2022-08-28T12:03:16.362Z,101562.38
2022-08-28T12:05:45.937Z,101552.13
2022-08-28T12:08:33.252Z,101544.38
2022-08-28T12:10:59.892Z,101549.84
2022-08-28T12:13:46.673Z,101553.34
2022-08-28T12:16:15.768Z,101552.25
2022-08-28T12:18:42.943Z,101551.06
2022-08-28T12:21:17.690Z,101554.06
2022-08-28T12:23:57.030Z,101543.34
2022-08-28T12:26:28.272Z,101552.59
2022-08-28T12:29:04.739Z,101543.59
2022-08-28T12:32:12.370Z,101549.66
2022-08-28T12:34:45.597Z,101533.91
2022-08-28T12:37:53.743Z,101533.44
2022-08-28T12:40:25.450Z,101541.88
2022-08-28T12:42:56.620Z,101534.81
2022-08-28T12:45:25.618Z,101542.41
2022-08-28T12:47:56.216Z,101535.34
2022-08-28T12:50:34.084Z,101532.28
2022-08-28T12:53:04.343Z,101537.28
2022-08-28T12:55:32.727Z,101534.28
2022-08-28T12:58:00.369Z,101534.91
2022-08-28T13:00:32.871Z,101539.66
2022-08-28T13:03:00.969Z,101536.03
2022-08-28T13:05:37.701Z,101528.31
2022-08-28T13:08:11.237Z,101523.91
2022-08-28T13:10:48.592Z,101529.75
2022-08-28T13:13:41.172Z,101526.41
2022-08-28T13:16:11.143Z,101517.31
2022-08-28T13:19:10.541Z,101517.41
2022-08-28T13:22:02.577Z,101509.69
2022-08-28T13:24:31.831Z,101504.78
2022-08-28T13:27:08.981Z,101510.97
2022-08-28T13:29:36.674Z,101508.97
2022-08-28T13:32:05.826Z,101501.88
2022-08-28T13:34:35.467Z,101500.59
2022-08-28T13:37:07.276Z,101509.16
2022-08-28T13:39:41.442Z,101502.50
2022-08-28T13:42:11.715Z,101508.63
2022-08-28T13:44:49.213Z,101502.69
2022-08-28T13:47:16.640Z,101496.16
2022-08-28T13:49:43.304Z,101504.69
2022-08-28T13:52:10.937Z,101500.44
2022-08-28T13:54:41.587Z,101495.28
2022-08-28T13:57:10.832Z,101494.97
2022-08-28T13:59:37.406Z,101493.31
2022-08-28T14:02:26.513Z,101497.16
2022-08-28T14:04:53.692Z,101500.53
2022-08-28T14:07:20.393Z,101480.56
2022-08-28T14:09:47.025Z,101479.16
2022-08-28T14:12:14.082Z,101483.75
2022-08-28T14:14:40.801Z,101480.81
2022-08-28T14:17:08.788Z,101476.91
2022-08-28T14:19:36.211Z,101469.53
2022-08-28T14:22:03.648Z,101471.94
2022-08-28T14:24:30.439Z,101470.97
2022-08-28T14:26:57.132Z,101469.53
2022-08-28T14:29:23.702Z,101468.34
2022-08-28T14:31:50.481Z,101469.44
2022-08-28T14:34:22.458Z,101468.63
2022-08-28T14:36:50.935Z,101470.88
2022-08-28T14:39:17.710Z,101467.28
2022-08-28T14:41:46.746Z,101465.72
2022-08-28T14:44:13.840Z,101476.69
2022-08-28T14:46:44.681Z,101467.47
2022-08-28T14:49:13.632Z,101465.66
2022-08-28T14:51:42.353Z,101469.97
2022-08-28T14:54:11.406Z,101467.38
2022-08-28T14:56:38.114Z,101461.81
2022-08-28T14:59:06.660Z,101456.13
2022-08-28T15:01:40.714Z,101474.47
2022-08-28T15:04:11.880Z,101460.16
2022-08-28T15:06:39.323Z,101468.47
2022-08-28T15:09:06.065Z,101468.34
2022-08-28T15:11:32.704Z,101476.25
2022-08-28T15:13:59.288Z,101469.06
2022-08-28T15:16:30.573Z,101474.91
2022-08-28T15:18:59.280Z,101474.03
2022-08-28T15:21:32.672Z,101474.88
2022-08-28T15:24:00.889Z,101465.78
2022-08-28T15:26:28.776Z,101453.97
2022-08-28T15:28:58.226Z,101469.72
2022-08-28T15:31:25.047Z,101464.63
2022-08-28T15:33:52.387Z,101464.22
2022-08-28T15:36:19.935Z,101459.59
2022-08-28T15:39:05.259Z,101457.03
2022-08-28T15:41:32.099Z,101459.56
2022-08-28T15:44:01.397Z,101457.00
2022-08-28T15:46:31.442Z,101460.50
2022-08-28T15:48:58.053Z,101461.63
2022-08-28T15:51:26.064Z,101451.50
2022-08-28T15:53:52.950Z,101468.88
2022-08-28T15:56:20.032Z,101455.16
2022-08-28T15:58:46.745Z,101450.59
2022-08-28T16:01:13.718Z,101453.09
2022-08-28T16:03:40.776Z,101456.13
2022-08-28T16:06:16.419Z,101461.75
2022-08-28T16:08:43.869Z,101451.09
2022-08-28T16:11:14.108Z,101455.97
2022-08-28T16:13:40.804Z,101448.78
2022-08-28T16:16:07.468Z,101454.53
2022-08-28T16:18:34.106Z,101453.09
2022-08-28T16:21:04.771Z,101452.69
2022-08-28T16:23:32.458Z,101457.97
2022-08-28T16:25:59.893Z,101450.06
2022-08-28T16:28:27.117Z,101447.84
2022-08-28T16:30:54.121Z,101450.31
2022-08-28T16:33:22.244Z,101449.19
2022-08-28T16:35:54.866Z,101455.84
2022-08-28T16:38:23.198Z,101455.03
2022-08-28T16:40:49.941Z,101451.56
2022-08-28T16:43:16.671Z,101443.69
2022-08-28T16:45:45.562Z,101445.44
2022-08-28T16:48:14.427Z,101444.75
2022-08-28T16:50:42.726Z,101439.53
2022-08-28T16:53:09.947Z,101439.19
2022-08-28T16:55:37.252Z,101442.78
2022-08-28T16:58:04.952Z,101451.53
2022-08-28T17:00:31.625Z,101442.53
2022-08-28T17:02:58.243Z,101446.34
2022-08-28T17:05:25.085Z,101448.91
2022-08-28T17:07:52.304Z,101452.72
2022-08-28T17:10:22.892Z,101441.16
2022-08-28T17:12:49.500Z,101438.38
2022-08-28T17:15:16.120Z,101439.66
2022-08-28T17:17:43.081Z,101438.47
2022-08-28T17:20:30.899Z,101437.31
2022-08-28T17:22:57.497Z,101447.84
2022-08-28T17:25:25.301Z,101443.66
2022-08-28T17:27:52.476Z,101443.13
2022-08-28T17:30:19.453Z,101445.53
2022-08-28T17:32:46.686Z,101447.97
2022-08-28T17:35:13.833Z,101455.72
2022-08-28T17:37:41.224Z,101454.34
2022-08-28T17:40:10.873Z,101453.50
2022-08-28T17:42:37.518Z,101455.91
2022-08-28T17:45:05.604Z,101456.75
2022-08-28T17:47:32.194Z,101457.16
2022-08-28T17:50:00.443Z,101457.03
2022-08-28T17:52:28.378Z,101454.91
2022-08-28T17:54:55.244Z,101454.44
2022-08-28T17:57:23.134Z,101464.84
2022-08-28T17:59:50.159Z,101470.47
2022-08-28T18:02:17.080Z,101463.88
2022-08-28T18:04:43.982Z,101468.31
2022-08-28T18:07:11.190Z,101472.38
2022-08-28T18:09:38.098Z,101473.44
2022-08-28T18:12:06.755Z,101476.97
2022-08-28T18:14:39.674Z,101474.88
2022-08-28T18:17:06.374Z,101480.72
2022-08-28T18:19:36.793Z,101476.91
2022-08-28T18:22:03.437Z,101480.72
2022-08-28T18:24:31.049Z,101483.44
2022-08-28T18:26:58.913Z,101484.78
2022-08-28T18:29:25.542Z,101486.84
2022-08-28T18:31:52.220Z,101492.88
2022-08-28T18:34:18.792Z,101497.50
2022-08-28T18:36:45.488Z,101497.47
2022-08-28T18:39:12.070Z,101497.03
2022-08-28T18:41:44.096Z,101503.56
2022-08-28T18:44:12.669Z,101500.63
2022-08-28T18:46:39.280Z,101508.97
2022-08-28T18:49:05.960Z,101512.78
2022-08-28T18:51:32.913Z,101524.03
2022-08-28T18:54:03.188Z,101517.72
2022-08-28T18:56:32.401Z,101522.03
2022-08-28T18:59:00.487Z,101521.78
2022-08-28T19:01:27.183Z,101525.25
2022-08-28T19:03:55.006Z,101531.13
2022-08-28T19:06:22.105Z,101536.66
2022-08-28T19:08:48.764Z,101526.09
2022-08-28T19:11:16.179Z,101534.00
2022-08-28T19:13:43.598Z,101536.34
2022-08-28T19:16:15.373Z,101539.09
2022-08-28T19:18:41.965Z,101539.88
2022-08-28T19:21:16.375Z,101556.34
2022-08-28T19:23:47.551Z,101550.16
2022-08-28T19:26:24.444Z,101552.41
2022-08-28T19:28:51.722Z,101551.16
2022-08-28T19:31:18.457Z,101554.41
2022-08-28T19:33:46.398Z,101559.84
2022-08-28T19:36:13.800Z,101557.84
2022-08-28T19:38:40.872Z,101563.63
2022-08-28T19:41:09.347Z,101551.31
2022-08-28T19:43:43.123Z,101562.66
2022-08-28T19:46:19.314Z,101569.84
2022-08-28T19:48:50.664Z,101570.53
2022-08-28T19:51:22.952Z,101577.22
2022-08-28T19:53:58.247Z,101562.16
2022-08-28T19:56:33.782Z,101574.22
2022-08-28T19:59:03.504Z,101574.22
2022-08-28T20:01:33.418Z,101576.22
2022-08-28T20:04:00.496Z,101572.38
2022-08-28T20:06:30.244Z,101579.38
2022-08-28T20:08:56.877Z,101583.47
2022-08-28T20:11:30.601Z,101587.97
2022-08-28T20:14:03.734Z,101594.00
2022-08-28T20:16:34.060Z,101600.94
2022-08-28T20:19:01.888Z,101589.63
2022-08-28T20:21:36.782Z,101599.91
2022-08-28T20:24:06.305Z,101599.94
2022-08-28T20:26:32.945Z,101603.38
2022-08-28T20:28:59.485Z,101604.13
2022-08-28T20:31:26.377Z,101609.25
2022-08-28T20:33:52.907Z,101602.81
2022-08-28T20:36:21.188Z,101606.63
2022-08-28T20:38:48.052Z,101607.06
2022-08-28T20:41:18.343Z,101617.78
2022-08-28T20:43:46.157Z,101614.31
2022-08-28T20:46:14.206Z,101619.81
2022-08-28T20:48:40.811Z,101614.34
2022-08-28T20:51:07.933Z,101613.09
2022-08-28T20:53:37.769Z,101611.06
2022-08-28T20:56:08.384Z,101617.16
2022-08-28T20:58:35.563Z,101625.31
2022-08-28T21:01:02.259Z,101628.63
2022-08-28T21:03:28.826Z,101617.13
2022-08-28T21:05:55.470Z,101626.28
2022-08-28T21:08:21.996Z,101625.31
2022-08-28T21:10:48.506Z,101643.47
2022-08-28T21:13:15.137Z,101632.25
2022-08-28T21:15:41.734Z,101644.09
2022-08-28T21:18:09.794Z,101643.22
2022-08-28T21:20:38.349Z,101643.84
2022-08-28T21:23:06.710Z,101643.28
2022-08-28T21:25:33.288Z,101652.03
2022-08-28T21:28:04.169Z,101653.06
2022-08-28T21:30:31.339Z,101652.63
2022-08-28T21:32:57.991Z,101656.50
2022-08-28T21:35:24.696Z,101652.63
2022-08-28T21:37:51.408Z,101654.28
2022-08-28T21:40:19.295Z,101653.84
2022-08-28T21:42:45.893Z,101658.69
2022-08-28T21:45:12.826Z,101657.53
2022-08-28T21:47:40.992Z,101664.25
2022-08-28T21:50:08.456Z,101665.28
2022-08-28T21:52:35.361Z,101654.66
2022-08-28T21:55:05.666Z,101662.84
2022-08-28T21:57:32.724Z,101658.34
2022-08-28T21:59:59.516Z,101667.31
2022-08-28T22:02:26.835Z,101663.84
2022-08-28T22:04:53.718Z,101655.91
2022-08-28T22:07:20.513Z,101661.41
2022-08-28T22:09:47.165Z,101657.25
2022-08-28T22:12:13.693Z,101662.78
2022-08-28T22:14:40.257Z,101664.50
2022-08-28T22:17:11.320Z,101673.22
2022-08-28T22:19:39.156Z,101661.75
2022-08-28T22:22:24.364Z,101667.88
2022-08-28T22:24:51.389Z,101657.88
2022-08-28T22:27:17.982Z,101660.34
2022-08-28T22:29:44.520Z,101665.25
2022-08-28T22:32:11.191Z,101668.53
2022-08-28T22:34:41.236Z,101664.66
2022-08-28T22:37:11.423Z,101658.34
2022-08-28T22:39:42.085Z,101664.06
2022-08-28T22:42:09.852Z,101672.00
2022-08-28T22:44:37.705Z,101661.09
2022-08-28T22:47:04.711Z,101655.06
2022-08-28T22:49:31.401Z,101657.06
2022-08-28T22:51:57.920Z,101651.78
2022-08-28T22:54:24.676Z,101656.25
2022-08-28T22:56:51.185Z,101650.16
2022-08-28T22:59:18.474Z,101649.97
2022-08-28T23:01:45.182Z,101650.16
2022-08-28T23:04:12.152Z,101657.50
2022-08-28T23:06:41.736Z,101655.81
2022-08-28T23:09:08.951Z,101661.53
2022-08-28T23:11:36.473Z,101659.69
2022-08-28T23:14:04.806Z,101657.88
2022-08-28T23:16:31.456Z,101654.41
2022-08-28T23:19:09.239Z,101658.69
2022-08-28T23:21:42.728Z,101666.88
2022-08-28T23:24:10.720Z,101660.94
2022-08-28T23:26:37.223Z,101663.22
2022-08-28T23:29:05.037Z,101667.47
2022-08-28T23:31:31.632Z,101663.38
2022-08-28T23:33:58.208Z,101664.13
2022-08-28T23:36:25.192Z,101663.09
2022-08-28T23:38:51.942Z,101661.63
2022-08-28T23:41:18.628Z,101659.97
2022-08-28T23:43:45.923Z,101659.97
2022-08-28T23:46:16.391Z,101650.81
2022-08-28T23:48:43.205Z,101643.50
2022-08-28T23:51:13.774Z,101645.34
2022-08-28T23:53:42.171Z,101647.91
2022-08-28T23:56:09.497Z,101647.00
2022-08-28T23:58:36.041Z,101654.69
